• Join FlightAware (Why Join?)
  • Login
  • US Flag 
04:38PM EDT


 

Airport Tracker/Info


-or-


 

Live Flight TrackerFlight Track Log ✈ EJA370 ✈ 11-May-2013 ✈ KPNE - KHMZ

Flight Track Log - Related Links

Times and Time Zones

All times are in EDT time to prevent confusion due to time zone crossing. See the EJA370 flight status page for this flight to view local times or setup timezone preferences in your user account.

Time Position Orientation Groundspeed Altitude Reporting Facility
EDT Latitude Longitude Course Direction KTS MPH feet Rate Location/Type
07:30PM 40.0833 -75.0167 242° Southwest 168 193 600  Level Philadelphia TRACON
07:32PM 40.0500 -75.1000 242° Southwest 225 259 3,700 1,500 Climbing Philadelphia TRACON
07:33PM 40.0333 -75.2000 258° West 253 291 4,000 900 Climbing Philadelphia TRACON
07:34PM 40.0000 -75.2667 237° Southwest 257 296 5,600 2,160 Climbing Philadelphia TRACON
07:35PM 39.9233 -75.3833 241° Southwest 258 297 10,000 1,560 Climbing New York Center
07:36PM 39.8767 -75.4533 229° Southwest 258 297 10,000  Level New York Center
07:37PM 39.8836 -75.5403 276° West 227 261 10,000  Level New York Center
07:38PM 39.8900 -75.6408 275° West 284 327 10,100 780 Climbing New York Center
07:39PM 39.9014 -75.7689 277° West 328 377 11,600 2,460 Climbing New York Center
07:40PM 39.9094 -75.8722 276° West 334 384 15,200 2,160 Climbing New York Center
07:41PM 39.9200 -76.0083 276° West 334 384 16,000 360 Climbing New York Center
07:42PM 39.9297 -76.1175 277° West 339 390 16,000  Level New York Center
07:43PM 39.9400 -76.2564 276° West 351 404 16,000  Level New York Center
07:44PM 39.9494 -76.3681 276° West 356 410 16,000  Level New York Center
07:45PM 39.9592 -76.5097 275° West 351 404 16,000  Level New York Center
07:46PM 39.9683 -76.6217 276° West 351 404 16,000  Level New York Center
07:47PM 39.9761 -76.7578 274° West 351 404 16,000  Level New York Center
07:48PM 39.9828 -76.8722 274° West 351 404 16,000  Level New York Center
07:49PM 39.9928 -77.0003 276° West 345 397 16,000 -300 Level New York Center
07:50PM 39.9997 -77.1039 275° West 326 375 15,400 -1,380 Descending New York Center
07:51PM 40.0067 -77.2078 275° West 282 325 13,400 -2,280 Descending New York Center
07:52PM 40.0125 -77.2894 275° West 263 303 10,900 -2,280 Descending New York Center
07:53PM 40.0197 -77.3878 276° West 258 297 8,900 -720 Descending New York Center
07:55PM 40.0328 -77.5381 277° West 265 305 9,000  Climbing Cleveland Center
07:56PM 40.0372 -77.6356 273° West 253 291 9,000  Level Cleveland Center
07:57PM 40.0414 -77.7111 274° West 259 298 9,000  Level Cleveland Center
07:58PM 40.0478 -77.8031 275° West 254 292 9,000  Level Cleveland Center
07:59PM 40.0542 -77.8897 276° West 254 292 9,000 -900 Level Cleveland Center
08:00PM 40.0606 -77.9925 275° West 254 292 7,200 -2,100 Descending Cleveland Center
08:01PM 40.0436 -78.0717 254° West 244 281 4,900 -1,620 Descending Cleveland Center
08:02PM 40.0283 -78.1319 252° West 219 252 4,000 -480 Descending Cleveland Center
08:03PM 40.0111 -78.2058 253° West 212 244 4,000  Level Cleveland Center
08:04PM 39.9806 -78.2422 222° Southwest 191 220 4,000  Level Cleveland Center
08:04PM 39.9642 -78.2536 208° Southwest 206 237 4,000 -120 Level Cleveland Center
08:05PM 39.9569 -78.3053 260° West 189 217 3,900 -120 Descending Cleveland Center
08:07PM 40.0339 -78.4035 316° Northwest  Level FlightAware Approximate
08:14PM 40.0833 -78.5000 270° West  Level FlightAware Approximate
08:15PM 40.0861 -78.5135 270° West  Level Estimated
08:16PM 40.0861 -78.5135 270° West  Level Estimated